createdAt,value
2019-02-18T00:02:12.286Z,2.60
2019-02-18T00:04:40.118Z,2.50
2019-02-18T00:07:14.557Z,2.40
2019-02-18T00:09:37.713Z,2.40
2019-02-18T00:12:05.533Z,2.40
2019-02-18T00:14:33.378Z,2.30
2019-02-18T00:17:01.231Z,2.30
2019-02-18T00:19:29.076Z,2.30
2019-02-18T00:21:56.942Z,2.20
2019-02-18T00:24:24.763Z,2.40
2019-02-18T00:26:52.686Z,2.40
2019-02-18T00:29:20.561Z,2.40
2019-02-18T00:31:48.423Z,2.50
2019-02-18T00:34:16.360Z,2.40
2019-02-18T00:36:44.528Z,2.30
2019-02-18T00:39:12.360Z,2.30
2019-02-18T00:41:40.170Z,2.40
2019-02-18T00:44:07.984Z,2.50
2019-02-18T00:46:35.918Z,2.70
2019-02-18T00:49:03.716Z,2.80
2019-02-18T00:51:31.559Z,2.60
2019-02-18T00:53:59.437Z,2.70
2019-02-18T00:56:27.277Z,2.70
2019-02-18T00:58:55.115Z,2.80
2019-02-18T01:01:22.948Z,2.60
2019-02-18T01:03:50.780Z,2.40
2019-02-18T01:06:18.654Z,2.40
2019-02-18T01:08:46.466Z,2.20
2019-02-18T01:11:14.669Z,2.10
2019-02-18T01:13:42.524Z,2.10
2019-02-18T01:16:10.342Z,2.20
2019-02-18T01:18:38.214Z,2.10
2019-02-18T01:21:06.104Z,2.10
2019-02-18T01:23:33.952Z,2.10
2019-02-18T01:26:01.807Z,2.10
2019-02-18T01:28:29.656Z,2.00
2019-02-18T01:30:57.581Z,2.00
2019-02-18T01:33:25.421Z,2.00
2019-02-18T01:35:53.270Z,2.00
2019-02-18T01:38:21.101Z,1.90
2019-02-18T01:40:48.905Z,1.90
2019-02-18T01:43:16.745Z,1.90
2019-02-18T01:45:44.599Z,1.90
2019-02-18T01:48:12.434Z,1.80
2019-02-18T01:50:40.301Z,1.90
2019-02-18T01:53:08.099Z,1.80
2019-02-18T01:55:35.935Z,1.80
2019-02-18T01:58:03.855Z,1.70
2019-02-18T02:00:32.068Z,1.70
2019-02-18T02:03:00.232Z,1.70
2019-02-18T02:05:28.161Z,1.70
2019-02-18T02:07:56.783Z,1.70
2019-02-18T02:10:25.259Z,1.60
2019-02-18T02:13:31.913Z,1.60
2019-02-18T02:16:02.367Z,1.60
2019-02-18T02:18:30.187Z,1.60
2019-02-18T02:20:58.010Z,1.60
2019-02-18T02:23:27.123Z,1.60
2019-02-18T02:25:54.950Z,1.60
2019-02-18T02:28:22.788Z,1.60
2019-02-18T02:30:50.592Z,1.70
2019-02-18T02:33:18.406Z,1.60
2019-02-18T02:35:46.275Z,1.60
2019-02-18T02:38:14.116Z,1.50
2019-02-18T02:40:42.569Z,1.50
2019-02-18T02:43:10.418Z,1.50
2019-02-18T02:45:38.223Z,1.40
2019-02-18T02:48:06.280Z,1.40
2019-02-18T02:50:34.087Z,1.30
2019-02-18T02:53:01.911Z,1.30
2019-02-18T02:55:29.758Z,1.30
2019-02-18T02:57:57.613Z,1.20
2019-02-18T03:00:25.436Z,1.10
2019-02-18T03:02:53.280Z,1.20
2019-02-18T03:05:21.092Z,1.30
2019-02-18T03:07:49.007Z,1.30
2019-02-18T03:10:16.860Z,1.30
2019-02-18T03:12:44.769Z,1.30
2019-02-18T03:15:14.503Z,1.20
2019-02-18T03:17:42.417Z,1.20
2019-02-18T03:20:10.483Z,1.20
2019-02-18T03:22:38.359Z,1.20
2019-02-18T03:25:28.645Z,1.20
2019-02-18T03:28:49.287Z,1.10
2019-02-18T03:31:22.354Z,1.10
2019-02-18T03:34:05.030Z,1.00
2019-02-18T03:36:32.847Z,1.00
2019-02-18T03:39:00.663Z,1.00
2019-02-18T03:41:28.515Z,1.00
2019-02-18T03:43:56.360Z,1.00
2019-02-18T03:46:24.213Z,1.00
2019-02-18T03:48:52.066Z,1.00
2019-02-18T03:51:19.888Z,1.20
2019-02-18T03:53:48.074Z,1.10
2019-02-18T03:56:15.893Z,1.10
2019-02-18T03:58:43.755Z,1.00
2019-02-18T04:01:11.629Z,1.40
2019-02-18T04:03:39.480Z,1.60
2019-02-18T04:06:07.308Z,1.50
2019-02-18T04:08:42.355Z,1.20
2019-02-18T04:11:04.842Z,1.20
2019-02-18T04:13:32.661Z,1.40
2019-02-18T04:16:00.480Z,1.50
2019-02-18T04:18:28.324Z,1.50
2019-02-18T04:20:56.193Z,1.40
2019-02-18T04:23:24.040Z,1.20
2019-02-18T04:25:51.868Z,1.10
2019-02-18T04:28:19.699Z,1.10
2019-02-18T04:30:47.812Z,1.00
2019-02-18T04:33:15.641Z,0.90
2019-02-18T04:35:43.495Z,0.90
2019-02-18T04:38:11.347Z,1.00
2019-02-18T04:40:39.246Z,1.10
2019-02-18T04:43:07.114Z,1.40
2019-02-18T04:45:34.920Z,1.40
2019-02-18T04:48:02.785Z,1.20
2019-02-18T04:50:30.634Z,1.10
2019-02-18T04:52:58.491Z,1.30
2019-02-18T04:55:26.369Z,1.30
2019-02-18T04:57:54.183Z,1.20
2019-02-18T05:00:22.085Z,1.20
2019-02-18T05:02:49.903Z,1.30
2019-02-18T05:05:17.746Z,1.40
2019-02-18T05:07:45.636Z,1.40
2019-02-18T05:10:13.475Z,1.50
2019-02-18T05:12:41.274Z,1.60
2019-02-18T05:15:09.276Z,1.60
2019-02-18T05:17:37.102Z,1.40
2019-02-18T05:20:04.986Z,1.40
2019-02-18T05:22:32.831Z,1.60
2019-02-18T05:25:00.703Z,1.60
2019-02-18T05:27:33.331Z,1.50
2019-02-18T05:29:58.297Z,1.50
2019-02-18T05:32:26.160Z,1.50
2019-02-18T05:34:53.985Z,1.40
2019-02-18T05:37:21.848Z,1.30
2019-02-18T05:39:49.680Z,1.20
2019-02-18T05:42:17.500Z,1.20
2019-02-18T05:44:45.398Z,1.20
2019-02-18T05:47:13.257Z,1.30
2019-02-18T05:49:41.119Z,1.10
2019-02-18T05:52:08.987Z,1.10
2019-02-18T05:54:36.973Z,1.10
2019-02-18T05:57:04.844Z,1.30
2019-02-18T05:59:32.690Z,1.40
2019-02-18T06:02:00.676Z,1.20
2019-02-18T06:04:28.547Z,1.10
2019-02-18T06:06:56.441Z,0.90
2019-02-18T06:09:29.781Z,0.90
2019-02-18T06:11:54.115Z,0.70
2019-02-18T06:14:21.914Z,0.60
2019-02-18T06:16:49.801Z,0.60
2019-02-18T06:19:17.656Z,0.50
2019-02-18T06:21:45.495Z,0.50
2019-02-18T06:24:13.368Z,0.50
2019-02-18T06:26:41.165Z,0.50
2019-02-18T06:29:09.022Z,0.50
2019-02-18T06:31:36.878Z,0.50
2019-02-18T06:34:04.723Z,0.60
2019-02-18T06:36:32.588Z,0.80
2019-02-18T06:39:00.419Z,0.70
2019-02-18T06:41:28.308Z,0.70
2019-02-18T06:43:56.115Z,0.60
2019-02-18T06:46:30.029Z,0.70
2019-02-18T06:49:20.118Z,0.70
2019-02-18T06:51:48.045Z,0.70
2019-02-18T06:54:16.044Z,0.70
2019-02-18T06:56:56.924Z,0.70
2019-02-18T06:59:28.963Z,0.80
2019-02-18T07:02:22.422Z,0.90
2019-02-18T07:05:15.725Z,0.90
2019-02-18T07:08:09.171Z,0.90
2019-02-18T07:10:55.066Z,0.90
2019-02-18T07:13:22.938Z,1.00
2019-02-18T07:15:50.780Z,1.10
2019-02-18T07:18:18.798Z,1.30
2019-02-18T07:20:46.622Z,1.50
2019-02-18T07:23:14.445Z,1.60
2019-02-18T07:25:42.339Z,1.70
2019-02-18T07:28:10.179Z,2.00
2019-02-18T07:30:38.113Z,2.60
2019-02-18T07:33:06.077Z,4.10
2019-02-18T07:35:33.894Z,5.60
2019-02-18T07:38:01.759Z,6.60
2019-02-18T07:40:30.197Z,6.70
2019-02-18T07:42:58.041Z,6.70
2019-02-18T07:45:25.950Z,6.70
2019-02-18T07:47:53.788Z,7.10
2019-02-18T07:50:21.654Z,7.30
2019-02-18T07:52:49.557Z,7.70
2019-02-18T07:55:17.451Z,7.90
2019-02-18T07:57:45.263Z,8.10
2019-02-18T08:00:13.581Z,8.20
2019-02-18T08:02:41.454Z,8.30
2019-02-18T08:05:09.420Z,8.60
2019-02-18T08:07:37.288Z,9.00
2019-02-18T08:10:12.178Z,9.60
2019-02-18T08:12:36.155Z,10.40
2019-02-18T08:15:04.416Z,12.00
2019-02-18T08:17:32.259Z,13.60
2019-02-18T08:20:00.301Z,14.90
2019-02-18T08:22:28.149Z,16.00
2019-02-18T08:24:56.021Z,17.10
2019-02-18T08:27:24.091Z,18.40
2019-02-18T08:29:51.892Z,19.70
2019-02-18T08:32:19.855Z,20.00
2019-02-18T08:34:47.803Z,20.30
2019-02-18T08:37:15.645Z,20.30
2019-02-18T08:39:43.531Z,20.60
2019-02-18T08:42:11.420Z,21.70
2019-02-18T08:44:39.306Z,22.60
2019-02-18T08:47:07.162Z,23.30
2019-02-18T08:49:35.088Z,24.60
2019-02-18T08:52:02.937Z,25.90
2019-02-18T08:54:30.770Z,27.10
2019-02-18T08:56:58.637Z,28.00
2019-02-18T08:59:26.524Z,28.80
2019-02-18T09:01:54.408Z,29.20
2019-02-18T09:04:22.278Z,29.70
2019-02-18T09:06:50.170Z,29.60
2019-02-18T09:09:18.078Z,30.10
2019-02-18T09:11:45.873Z,30.70
2019-02-18T09:14:13.770Z,30.30
2019-02-18T09:16:41.650Z,29.80
2019-02-18T09:19:12.445Z,30.40
2019-02-18T09:21:40.387Z,30.70
2019-02-18T09:24:21.128Z,31.20
2019-02-18T09:26:48.929Z,32.10
2019-02-18T09:29:16.834Z,32.40
2019-02-18T09:31:44.713Z,33.00
2019-02-18T09:34:12.540Z,33.70
2019-02-18T09:36:40.439Z,33.90
2019-02-18T09:39:16.801Z,34.10
2019-02-18T09:41:44.673Z,34.20
2019-02-18T09:44:12.831Z,35.10
2019-02-18T09:46:40.784Z,35.30
2019-02-18T09:49:08.620Z,35.40
2019-02-18T09:51:36.451Z,35.10
2019-02-18T09:54:04.621Z,35.00
2019-02-18T09:56:32.479Z,35.50
2019-02-18T09:59:00.341Z,36.00
2019-02-18T10:01:28.217Z,36.80
2019-02-18T10:03:56.078Z,37.50
2019-02-18T10:06:23.956Z,37.90
2019-02-18T10:08:51.810Z,37.60
2019-02-18T10:11:19.684Z,37.50
2019-02-18T10:13:47.531Z,37.20
2019-02-18T10:16:15.342Z,36.70
2019-02-18T10:18:44.464Z,36.60
2019-02-18T10:21:12.535Z,36.40
2019-02-18T10:23:40.388Z,36.10
2019-02-18T10:26:08.257Z,36.40
2019-02-18T10:28:36.104Z,36.40
2019-02-18T10:31:03.933Z,36.20
2019-02-18T10:33:32.232Z,35.50
2019-02-18T10:36:00.414Z,35.30
2019-02-18T10:38:28.244Z,34.50
2019-02-18T10:41:06.129Z,34.90
2019-02-18T10:43:32.433Z,34.80
2019-02-18T10:45:55.614Z,34.50
2019-02-18T10:48:23.799Z,34.70
2019-02-18T10:50:51.623Z,34.60
2019-02-18T10:53:19.469Z,34.90
2019-02-18T10:55:47.383Z,35.30
2019-02-18T10:58:15.244Z,34.90
2019-02-18T11:00:43.067Z,35.20
2019-02-18T11:03:10.922Z,35.50
2019-02-18T11:05:39.163Z,35.20
2019-02-18T11:08:07.014Z,35.00
2019-02-18T11:10:34.891Z,35.00
2019-02-18T11:13:02.753Z,34.30
2019-02-18T11:15:30.701Z,32.40
2019-02-18T11:17:58.577Z,31.10
2019-02-18T11:20:26.459Z,30.10
2019-02-18T11:22:54.355Z,28.90
2019-02-18T11:25:22.205Z,27.70
2019-02-18T11:27:50.008Z,26.20
2019-02-18T11:30:18.402Z,25.00
2019-02-18T11:32:46.458Z,24.40
2019-02-18T11:35:14.405Z,24.20
2019-02-18T11:37:42.313Z,23.70
2019-02-18T11:40:12.493Z,23.20
2019-02-18T11:42:40.340Z,23.10
2019-02-18T11:45:10.633Z,22.50
2019-02-18T11:47:38.489Z,22.10
2019-02-18T11:50:07.548Z,21.80
2019-02-18T11:52:35.421Z,21.40
2019-02-18T11:55:03.724Z,21.10
2019-02-18T11:57:31.815Z,21.00
2019-02-18T12:00:00.098Z,20.80
2019-02-18T12:02:27.976Z,20.50
2019-02-18T12:04:55.903Z,20.20
2019-02-18T12:07:23.762Z,20.30
2019-02-18T12:09:51.726Z,19.90
2019-02-18T12:12:19.580Z,19.70
2019-02-18T12:14:47.434Z,19.60
2019-02-18T12:17:20.522Z,19.70
2019-02-18T12:19:45.519Z,19.60
2019-02-18T12:22:13.368Z,19.50
2019-02-18T12:24:41.522Z,19.30
2019-02-18T12:27:09.368Z,19.20
2019-02-18T12:29:37.406Z,19.20
2019-02-18T12:32:05.280Z,19.10
2019-02-18T12:34:33.682Z,19.10
2019-02-18T12:37:01.504Z,18.90
2019-02-18T12:39:29.453Z,18.70
2019-02-18T12:41:57.281Z,18.70
2019-02-18T12:44:27.488Z,18.50
2019-02-18T12:46:55.007Z,18.60
2019-02-18T12:49:22.828Z,18.60
2019-02-18T12:51:50.673Z,18.70
2019-02-18T12:54:18.620Z,18.60
2019-02-18T12:56:46.445Z,18.10
2019-02-18T12:59:14.334Z,18.20
2019-02-18T13:01:42.161Z,18.00
2019-02-18T13:04:10.454Z,17.90
2019-02-18T13:06:38.398Z,17.80
2019-02-18T13:09:06.451Z,17.80
2019-02-18T13:11:34.589Z,17.90
2019-02-18T13:14:02.626Z,17.70
2019-02-18T13:16:31.024Z,17.70
2019-02-18T13:18:58.872Z,17.50
2019-02-18T13:21:26.696Z,17.50
2019-02-18T13:23:54.561Z,17.60
2019-02-18T13:26:22.511Z,17.70
2019-02-18T13:28:50.392Z,17.30
2019-02-18T13:31:18.245Z,17.30
2019-02-18T13:33:46.085Z,17.10
2019-02-18T13:36:14.713Z,17.00
2019-02-18T13:38:42.722Z,17.00
2019-02-18T13:41:10.604Z,16.90
2019-02-18T13:43:38.461Z,17.00
2019-02-18T13:46:06.371Z,16.90
2019-02-18T13:48:34.230Z,16.80
2019-02-18T13:51:02.067Z,16.60
2019-02-18T13:53:29.984Z,16.60
2019-02-18T13:55:57.924Z,16.40
2019-02-18T13:58:25.804Z,16.30
2019-02-18T14:00:53.689Z,16.20
2019-02-18T14:03:21.812Z,16.20
2019-02-18T14:05:49.661Z,16.20
2019-02-18T14:08:17.462Z,16.20
2019-02-18T14:10:45.348Z,16.20
2019-02-18T14:13:13.188Z,16.20
2019-02-18T14:15:41.052Z,16.00
2019-02-18T14:18:08.861Z,15.90
2019-02-18T14:20:37.105Z,15.90
2019-02-18T14:23:04.999Z,16.00
2019-02-18T14:25:32.833Z,15.90
2019-02-18T14:28:00.675Z,15.90
2019-02-18T14:30:28.510Z,15.90
2019-02-18T14:33:00.503Z,15.90
2019-02-18T14:35:28.395Z,15.80
2019-02-18T14:37:56.218Z,15.60
2019-02-18T14:40:24.711Z,15.60
2019-02-18T14:42:52.544Z,15.60
2019-02-18T14:45:20.392Z,15.60
2019-02-18T14:47:48.245Z,15.60
2019-02-18T14:50:17.724Z,15.60
2019-02-18T14:52:46.110Z,15.60
2019-02-18T14:55:14.663Z,15.50
2019-02-18T14:57:42.474Z,15.40
2019-02-18T15:00:21.653Z,15.40
2019-02-18T15:02:51.954Z,15.40
2019-02-18T15:05:19.911Z,15.40
2019-02-18T15:07:47.840Z,15.20
2019-02-18T15:10:15.935Z,15.20
2019-02-18T15:12:44.060Z,15.20
2019-02-18T15:15:12.004Z,15.20
2019-02-18T15:17:40.219Z,15.20
2019-02-18T15:20:08.096Z,15.20
2019-02-18T15:22:36.383Z,15.10
2019-02-18T15:25:04.374Z,14.90
2019-02-18T15:27:32.285Z,14.90
2019-02-18T15:30:00.235Z,14.90
2019-02-18T15:32:29.487Z,14.90
2019-02-18T15:34:57.311Z,14.90
2019-02-18T15:37:25.173Z,15.10
2019-02-18T15:39:53.445Z,15.00
2019-02-18T15:42:21.339Z,15.00
2019-02-18T15:44:49.163Z,14.80
2019-02-18T15:47:17.018Z,14.70
2019-02-18T15:49:45.063Z,14.60
2019-02-18T15:52:13.048Z,14.60
2019-02-18T15:54:40.912Z,14.60
2019-02-18T15:57:08.874Z,14.50
2019-02-18T15:59:36.687Z,14.50
2019-02-18T16:02:06.747Z,14.40
2019-02-18T16:04:34.615Z,14.40
2019-02-18T16:07:02.543Z,14.40
2019-02-18T16:09:30.369Z,14.30
2019-02-18T16:11:58.756Z,14.20
2019-02-18T16:14:26.608Z,14.10
2019-02-18T16:16:54.493Z,14.10
2019-02-18T16:19:22.430Z,14.00
2019-02-18T16:21:50.264Z,14.10
2019-02-18T16:24:20.225Z,14.10
2019-02-18T16:26:47.979Z,13.90
2019-02-18T16:29:16.187Z,13.80
2019-02-18T16:31:44.064Z,13.60
2019-02-18T16:34:12.163Z,13.60
2019-02-18T16:36:40.018Z,13.50
2019-02-18T16:39:08.412Z,13.40
2019-02-18T16:41:36.368Z,13.30
2019-02-18T16:44:04.223Z,13.30
2019-02-18T16:46:32.554Z,13.40
2019-02-18T16:49:00.821Z,13.30
2019-02-18T16:51:28.769Z,13.10
2019-02-18T16:53:56.669Z,12.80
2019-02-18T16:56:24.539Z,12.60
2019-02-18T16:58:52.398Z,12.30
2019-02-18T17:01:20.572Z,12.20
2019-02-18T17:03:48.426Z,12.20
2019-02-18T17:06:16.416Z,12.00
2019-02-18T17:08:44.303Z,11.80
2019-02-18T17:11:12.145Z,11.90
2019-02-18T17:13:40.037Z,12.00
2019-02-18T17:16:07.891Z,11.70
2019-02-18T17:18:36.148Z,11.50
2019-02-18T17:21:07.279Z,11.50
2019-02-18T17:23:35.121Z,11.30
2019-02-18T17:26:03.069Z,11.40
2019-02-18T17:28:30.959Z,11.30
2019-02-18T17:30:58.854Z,11.20
2019-02-18T17:33:26.779Z,11.00
2019-02-18T17:35:54.629Z,11.10
2019-02-18T17:38:23.051Z,10.90
2019-02-18T17:40:50.967Z,10.70
2019-02-18T17:43:18.827Z,10.70
2019-02-18T17:45:46.765Z,10.50
2019-02-18T17:48:14.678Z,10.30
2019-02-18T17:50:42.909Z,10.30
2019-02-18T17:53:10.768Z,10.30
2019-02-18T17:55:38.641Z,10.10
2019-02-18T17:58:06.608Z,10.10
2019-02-18T18:00:35.652Z,9.90
2019-02-18T18:03:03.558Z,9.90
2019-02-18T18:05:31.474Z,10.00
2019-02-18T18:07:59.649Z,9.80
2019-02-18T18:10:27.534Z,9.40
2019-02-18T18:12:55.448Z,9.20
2019-02-18T18:15:23.352Z,9.00
2019-02-18T18:17:51.337Z,8.80
2019-02-18T18:20:19.267Z,8.90
2019-02-18T18:22:47.181Z,9.00
2019-02-18T18:25:15.398Z,8.90
2019-02-18T18:27:43.385Z,8.90
2019-02-18T18:30:11.714Z,8.70
2019-02-18T18:32:39.623Z,8.60
2019-02-18T18:35:08.921Z,8.50
2019-02-18T18:37:37.216Z,8.50
2019-02-18T18:40:05.663Z,8.70
2019-02-18T18:42:33.560Z,8.70
2019-02-18T18:45:01.950Z,8.60
2019-02-18T18:47:29.861Z,8.40
2019-02-18T18:49:57.721Z,8.00
2019-02-18T18:52:25.676Z,7.80
2019-02-18T18:54:54.158Z,7.70
2019-02-18T18:57:22.402Z,7.60
2019-02-18T18:59:50.262Z,7.50
2019-02-18T19:02:18.195Z,7.40
2019-02-18T19:04:46.165Z,7.30
2019-02-18T19:07:14.180Z,7.30
2019-02-18T19:09:42.079Z,7.20
2019-02-18T19:12:10.370Z,7.20
2019-02-18T19:14:38.238Z,7.20
2019-02-18T19:17:06.213Z,7.30
2019-02-18T19:19:34.130Z,7.40
2019-02-18T19:22:02.186Z,7.30
2019-02-18T19:24:30.104Z,7.20
2019-02-18T19:26:57.993Z,7.10
2019-02-18T19:29:25.895Z,6.90
2019-02-18T19:31:53.787Z,6.90
2019-02-18T19:34:21.690Z,6.80
2019-02-18T19:36:49.564Z,6.80
2019-02-18T19:39:18.234Z,6.80
2019-02-18T19:41:51.061Z,6.40
2019-02-18T19:44:23.159Z,6.20
2019-02-18T19:46:51.354Z,6.10
2019-02-18T19:49:19.321Z,5.90
2019-02-18T19:51:47.250Z,5.80
2019-02-18T19:54:15.074Z,5.70
2019-02-18T19:56:43.086Z,5.80
2019-02-18T19:59:11.076Z,5.60
2019-02-18T20:01:38.950Z,5.50
2019-02-18T20:04:06.854Z,5.40
2019-02-18T20:06:34.997Z,5.40
2019-02-18T20:09:05.919Z,5.50
2019-02-18T20:11:33.757Z,5.50
2019-02-18T20:14:02.148Z,5.60
2019-02-18T20:16:30.051Z,5.70
2019-02-18T20:18:57.979Z,5.60
2019-02-18T20:21:25.893Z,5.70
2019-02-18T20:23:53.839Z,5.80
2019-02-18T20:26:21.738Z,5.90
2019-02-18T20:28:49.607Z,5.80
2019-02-18T20:31:17.632Z,5.70
2019-02-18T20:33:46.133Z,5.60
2019-02-18T20:36:14.022Z,5.30
2019-02-18T20:38:41.926Z,5.10
2019-02-18T20:41:09.853Z,5.10
2019-02-18T20:43:37.863Z,5.00
2019-02-18T20:46:06.177Z,5.00
2019-02-18T20:48:34.024Z,5.10
2019-02-18T20:51:02.023Z,5.00
2019-02-18T20:53:29.927Z,5.00
2019-02-18T20:55:57.828Z,4.90
2019-02-18T20:58:25.719Z,4.70
2019-02-18T21:00:53.597Z,4.60
2019-02-18T21:03:21.495Z,4.50
2019-02-18T21:05:49.420Z,4.50
2019-02-18T21:08:17.298Z,4.60
2019-02-18T21:10:45.207Z,4.60
2019-02-18T21:13:13.136Z,4.60
2019-02-18T21:15:40.979Z,4.70
2019-02-18T21:18:08.887Z,4.70
2019-02-18T21:20:36.825Z,4.70
2019-02-18T21:23:04.796Z,5.00
2019-02-18T21:25:32.685Z,5.00
2019-02-18T21:28:00.576Z,4.90
2019-02-18T21:30:28.460Z,4.70
2019-02-18T21:32:56.340Z,4.50
2019-02-18T21:35:24.573Z,4.30
2019-02-18T21:37:52.489Z,4.40
2019-02-18T21:40:20.301Z,4.40
2019-02-18T21:42:48.523Z,4.40
2019-02-18T21:45:16.387Z,4.30
2019-02-18T21:47:44.259Z,4.30
2019-02-18T21:50:12.436Z,4.30
2019-02-18T21:52:40.472Z,4.20
2019-02-18T21:55:08.911Z,4.10
2019-02-18T21:57:36.776Z,4.20
2019-02-18T22:00:12.830Z,4.20
2019-02-18T22:02:40.682Z,4.00
2019-02-18T22:05:08.588Z,3.80
2019-02-18T22:07:36.893Z,3.80
2019-02-18T22:10:04.789Z,3.80
2019-02-18T22:12:32.653Z,3.70
2019-02-18T22:15:00.559Z,3.80
2019-02-18T22:17:28.434Z,3.70
2019-02-18T22:19:56.357Z,3.60
2019-02-18T22:22:24.260Z,3.60
2019-02-18T22:24:52.569Z,3.60
2019-02-18T22:27:21.079Z,3.60
2019-02-18T22:29:48.952Z,3.60
2019-02-18T22:32:16.827Z,3.60
2019-02-18T22:34:44.686Z,3.50
2019-02-18T22:37:12.536Z,3.50
2019-02-18T22:39:40.400Z,3.20
2019-02-18T22:42:08.603Z,3.20
2019-02-18T22:44:41.811Z,3.10
2019-02-18T22:47:06.252Z,3.10
2019-02-18T22:49:34.102Z,3.10
2019-02-18T22:52:01.981Z,3.10
2019-02-18T22:54:29.796Z,3.10
2019-02-18T22:56:57.666Z,3.30
2019-02-18T22:59:25.938Z,3.30
2019-02-18T23:01:53.812Z,3.20
2019-02-18T23:04:21.956Z,3.10
2019-02-18T23:06:49.868Z,3.00
2019-02-18T23:09:17.937Z,2.90
2019-02-18T23:11:45.814Z,2.80
2019-02-18T23:14:13.754Z,2.60
2019-02-18T23:16:41.608Z,2.60
2019-02-18T23:19:09.508Z,2.70
2019-02-18T23:21:37.372Z,2.80
2019-02-18T23:24:05.234Z,2.90
2019-02-18T23:26:33.083Z,3.10
2019-02-18T23:29:00.952Z,3.20
2019-02-18T23:31:28.807Z,3.20
2019-02-18T23:33:56.679Z,3.20
2019-02-18T23:36:24.829Z,3.20
2019-02-18T23:38:52.740Z,3.00
2019-02-18T23:41:20.519Z,3.00
2019-02-18T23:43:48.403Z,3.10
2019-02-18T23:46:16.277Z,3.10
2019-02-18T23:48:44.138Z,3.30
2019-02-18T23:51:11.975Z,3.30
2019-02-18T23:53:39.897Z,3.30
2019-02-18T23:56:07.741Z,3.20
2019-02-18T23:58:35.589Z,3.20
